Time;durP1;ratioP1;P1;durP2;ratioP2;P2;SDS_P1;SDS_P2;PMS_P1;PMS_P2;Temp;Humidity;BMP_temperature;BMP_pressure;BME280_temperature;BME280_humidity;BME280_pressure;Samples;Min_cycle;Max_cycle;Signal;HPM_P1;HPM_P2
2022/12/29 00:00:11;;;;;;;0.37;0.30;;;7.80;99.90;;;;;;5075199;28;20456;-84
2022/12/29 00:02:37;;;;;;;0.30;0.30;;;7.80;99.90;;;;;;5075143;28;20528;-84
2022/12/29 00:05:06;;;;;;;1.00;0.30;;;7.80;99.90;;;;;;5075186;28;20469;-84
2022/12/29 00:07:33;;;;;;;0.40;0.30;;;8.00;99.90;;;;;;5075082;28;20445;-83
2022/12/29 00:10:00;;;;;;;0.50;0.50;;;8.00;99.90;;;;;;5075565;28;20524;-83
2022/12/29 00:15:36;;;;;;;0.40;0.40;;;8.00;99.90;;;;;;5074724;28;20477;-83
2022/12/29 00:17:58;;;;;;;0.60;0.40;;;8.20;99.90;;;;;;5074555;28;20523;-84
2022/12/29 00:36:57;;;;;;;0.30;0.30;;;8.30;99.90;;;;;;5074388;28;20424;-83
2022/12/29 00:44:59;;;;;;;0.30;0.30;;;8.30;99.90;;;;;;5073555;28;20456;-83
2022/12/29 00:47:25;;;;;;;1.43;0.40;;;8.30;99.90;;;;;;5074367;28;20468;-83
2022/12/29 00:49:51;;;;;;;1.77;0.40;;;8.30;99.90;;;;;;5073786;28;20453;-83
2022/12/29 00:52:19;;;;;;;0.30;0.23;;;8.40;99.90;;;;;;5073728;28;20477;-83
2022/12/29 00:54:46;;;;;;;0.40;0.40;;;8.40;99.90;;;;;;5073692;28;20718;-84
2022/12/29 00:57:13;;;;;;;0.30;0.30;;;8.40;99.90;;;;;;5074031;28;20449;-83
2022/12/29 00:59:41;;;;;;;0.50;0.50;;;8.40;99.90;;;;;;5073942;28;20456;-83
2022/12/29 01:02:08;;;;;;;0.40;0.40;;;8.40;99.90;;;;;;5073896;28;20452;-83
2022/12/29 01:04:35;;;;;;;0.30;0.30;;;8.40;99.90;;;;;;5073833;28;20473;-83
2022/12/29 01:07:02;;;;;;;0.30;0.30;;;8.40;99.90;;;;;;5073497;28;20945;-83
2022/12/29 01:12:15;;;;;;;3.13;0.83;;;8.40;99.90;;;;;;5073532;28;20461;-83
2022/12/29 01:14:42;;;;;;;0.30;0.30;;;8.40;99.90;;;;;;5073594;28;20556;-83
2022/12/29 01:17:09;;;;;;;0.30;0.30;;;8.40;99.90;;;;;;5073896;28;20795;-83
2022/12/29 01:19:35;;;;;;;0.40;0.30;;;8.40;99.90;;;;;;5073578;28;20449;-84
2022/12/29 01:22:02;;;;;;;0.30;0.30;;;8.40;99.90;;;;;;5073370;28;20448;-83
2022/12/29 01:24:30;;;;;;;0.30;0.30;;;8.50;99.90;;;;;;5073516;28;20472;-83
2022/12/29 01:26:57;;;;;;;0.40;0.30;;;8.50;99.90;;;;;;5073434;28;20453;-84
2022/12/29 01:29:24;;;;;;;0.50;0.40;;;8.50;99.90;;;;;;5073514;28;20450;-84
2022/12/29 01:31:51;;;;;;;3.97;0.60;;;8.60;99.90;;;;;;5073350;28;20827;-83
2022/12/29 01:34:18;;;;;;;0.80;0.33;;;8.60;99.90;;;;;;5073450;28;20461;-83
2022/12/29 01:36:44;;;;;;;0.30;0.30;;;8.70;99.90;;;;;;5073471;28;20455;-83
2022/12/29 01:39:11;;;;;;;0.30;0.20;;;8.70;99.90;;;;;;5073480;28;20803;-83
2022/12/29 01:41:39;;;;;;;2.10;0.50;;;8.70;99.90;;;;;;5073468;28;20464;-84
2022/12/29 01:44:47;;;;;;;0.30;0.30;;;8.70;99.90;;;;;;5073048;28;20477;-83
2022/12/29 01:47:17;;;;;;;0.40;0.40;;;8.80;99.90;;;;;;5073348;28;20430;-83
2022/12/29 01:49:44;;;;;;;0.40;0.30;;;8.90;99.90;;;;;;5073587;28;20434;-83
2022/12/29 01:52:11;;;;;;;0.70;0.67;;;8.80;99.90;;;;;;5073235;28;20509;-83
2022/12/29 01:54:43;;;;;;;0.30;0.30;;;8.90;99.90;;;;;;5073197;28;20470;-83
2022/12/29 01:57:16;;;;;;;0.40;0.30;;;8.90;99.90;;;;;;5073032;28;20437;-83
2022/12/29 01:59:50;;;;;;;0.30;0.20;;;9.00;99.90;;;;;;5073313;28;20433;-83
2022/12/29 02:02:17;;;;;;;0.93;0.40;;;9.00;99.90;;;;;;5073305;28;20418;-84
2022/12/29 02:04:44;;;;;;;0.40;0.30;;;9.00;99.90;;;;;;5072818;28;20992;-83
2022/12/29 02:07:17;;;;;;;1.73;0.83;;;9.00;99.90;;;;;;5073426;28;20441;-84
2022/12/29 02:09:47;;;;;;;0.40;0.30;;;9.00;99.90;;;;;;5073139;28;20437;-83
2022/12/29 02:12:15;;;;;;;0.30;0.23;;;9.00;99.90;;;;;;5072809;28;20568;-83
2022/12/29 02:14:42;;;;;;;0.40;0.30;;;9.00;99.90;;;;;;5073269;28;20461;-83
2022/12/29 02:17:18;;;;;;;0.40;0.30;;;9.10;99.90;;;;;;5073043;28;20952;-84
2022/12/29 02:20:30;;;;;;;0.50;0.30;;;9.10;99.90;;;;;;5073079;28;20436;-83
2022/12/29 02:23:12;;;;;;;0.30;0.30;;;9.10;99.90;;;;;;5072725;28;20940;-84
2022/12/29 02:26:03;;;;;;;0.40;0.37;;;9.10;99.90;;;;;;5072776;28;20425;-83
2022/12/29 02:28:55;;;;;;;0.63;0.40;;;9.10;99.90;;;;;;5072996;28;20434;-84
2022/12/29 02:31:27;;;;;;;0.33;0.33;;;9.10;99.90;;;;;;5072712;28;20826;-84
2022/12/29 02:34:06;;;;;;;0.60;0.40;;;9.10;99.90;;;;;;5072889;28;20458;-83
2022/12/29 02:36:43;;;;;;;0.30;0.30;;;9.00;99.90;;;;;;5073198;28;20432;-84
2022/12/29 02:39:19;;;;;;;0.40;0.30;;;9.00;99.90;;;;;;5076750;28;20443;-84
2022/12/29 02:41:57;;;;;;;0.30;0.30;;;9.00;99.90;;;;;;5076895;28;20429;-84
2022/12/29 02:44:32;;;;;;;0.80;0.40;;;9.10;99.90;;;;;;5076831;28;20472;-84
2022/12/29 02:47:06;;;;;;;0.30;0.30;;;9.10;99.90;;;;;;5076606;28;20440;-84
2022/12/29 02:49:42;;;;;;;1.27;0.40;;;9.20;99.90;;;;;;5076596;28;20430;-83
2022/12/29 02:52:14;;;;;;;0.60;0.50;;;9.30;99.90;;;;;;5076441;28;20472;-84
2022/12/29 02:54:43;;;;;;;0.30;0.30;;;9.40;99.90;;;;;;5076412;28;20465;-83
2022/12/29 02:57:13;;;;;;;0.40;0.40;;;9.40;99.90;;;;;;5076376;28;20454;-83
2022/12/29 02:59:40;;;;;;;0.40;0.30;;;9.50;99.90;;;;;;5076063;28;20438;-84
2022/12/29 03:02:31;;;;;;;0.37;0.30;;;9.50;99.90;;;;;;5076263;28;20445;-84
2022/12/29 03:05:15;;;;;;;0.30;0.30;;;9.50;99.90;;;;;;5076225;28;20477;-83
2022/12/29 03:07:50;;;;;;;1.27;0.37;;;9.60;99.90;;;;;;5076288;28;20429;-84
2022/12/29 03:10:28;;;;;;;0.30;0.30;;;9.60;99.90;;;;;;5075911;28;20913;-84
2022/12/29 03:16:01;;;;;;;0.40;0.30;;;9.60;99.90;;;;;;5075847;28;20414;-83
2022/12/29 03:18:40;;;;;;;0.40;0.30;;;9.60;99.90;;;;;;5076103;28;20422;-84
2022/12/29 03:21:12;;;;;;;1.10;0.30;;;9.70;99.90;;;;;;5075995;28;20438;-84
2022/12/29 03:23:43;;;;;;;0.30;0.20;;;9.70;99.90;;;;;;5075957;28;20461;-84
2022/12/29 03:26:13;;;;;;;0.40;0.30;;;9.70;99.90;;;;;;5075933;28;20441;-84
2022/12/29 03:28:43;;;;;;;0.40;0.30;;;9.70;99.90;;;;;;5075890;28;20477;-83
2022/12/29 03:31:12;;;;;;;0.30;0.30;;;9.80;99.90;;;;;;5076096;28;20797;-83
2022/12/29 03:33:43;;;;;;;0.50;0.30;;;9.80;99.90;;;;;;5075625;28;20495;-83
2022/12/29 03:36:17;;;;;;;0.30;0.30;;;9.90;99.90;;;;;;5075718;28;20430;-84
2022/12/29 03:38:49;;;;;;;0.30;0.30;;;9.90;99.90;;;;;;5075704;28;20433;-84
2022/12/29 03:41:19;;;;;;;0.70;0.50;;;9.80;99.90;;;;;;5075888;28;20434;-83
2022/12/29 03:43:46;;;;;;;0.30;0.20;;;9.90;99.90;;;;;;5075194;28;20984;-83
2022/12/29 03:46:13;;;;;;;1.67;0.53;;;9.80;99.90;;;;;;5075454;28;20447;-84
2022/12/29 03:48:42;;;;;;;0.30;0.30;;;9.80;99.90;;;;;;5074534;28;20445;-83
2022/12/29 03:51:08;;;;;;;0.30;0.20;;;9.80;99.90;;;;;;5075838;28;20452;-83
2022/12/29 03:53:35;;;;;;;0.40;0.30;;;9.80;99.90;;;;;;5075215;28;20492;-83
2022/12/29 03:56:02;;;;;;;0.40;0.30;;;9.70;99.90;;;;;;5075328;28;20445;-83
2022/12/29 03:58:28;;;;;;;0.30;0.30;;;9.70;99.90;;;;;;5075011;28;20452;-84
2022/12/29 04:00:55;;;;;;;0.40;0.30;;;9.60;99.90;;;;;;5075480;28;20475;-83
2022/12/29 04:03:22;;;;;;;1.80;0.40;;;9.60;99.90;;;;;;5075110;28;20836;-83
2022/12/29 04:05:50;;;;;;;0.40;0.30;;;9.50;99.90;;;;;;5074792;28;20457;-83
2022/12/29 04:08:17;;;;;;;0.40;0.33;;;9.50;99.90;;;;;;5075104;28;20450;-83
2022/12/29 04:10:43;;;;;;;0.37;0.30;;;9.40;99.90;;;;;;5075020;28;20816;-83
2022/12/29 04:13:10;;;;;;;0.40;0.30;;;9.40;99.90;;;;;;5074601;28;20490;-83
2022/12/29 04:15:37;;;;;;;0.33;0.33;;;9.40;99.90;;;;;;5074938;28;20454;-83
2022/12/29 04:18:04;;;;;;;0.30;0.30;;;9.30;99.90;;;;;;5074868;28;20819;-84
2022/12/29 04:23:16;;;;;;;0.30;0.30;;;9.20;99.90;;;;;;5074735;28;20417;-84
2022/12/29 04:25:46;;;;;;;0.30;0.20;;;9.30;99.90;;;;;;5074413;28;20797;-83
2022/12/29 04:28:13;;;;;;;1.40;0.40;;;9.30;99.90;;;;;;5074714;28;20453;-83
2022/12/29 04:30:39;;;;;;;0.30;0.30;;;9.30;99.90;;;;;;5074565;28;20457;-83
2022/12/29 04:33:06;;;;;;;0.30;0.30;;;9.30;99.90;;;;;;5074663;28;20488;-84
2022/12/29 04:35:33;;;;;;;0.60;0.60;;;9.30;99.90;;;;;;5074490;28;20445;-83
2022/12/29 04:38:00;;;;;;;0.30;0.30;;;9.30;99.90;;;;;;5074731;28;20437;-83
2022/12/29 04:40:28;;;;;;;0.53;0.40;;;9.30;99.90;;;;;;5074457;28;20448;-83
2022/12/29 04:42:55;;;;;;;0.30;0.20;;;9.20;99.90;;;;;;5074065;28;20442;-84
2022/12/29 04:45:22;;;;;;;0.40;0.40;;;9.30;99.90;;;;;;5073960;28;20942;-83
2022/12/29 04:47:49;;;;;;;0.60;0.50;;;9.40;99.90;;;;;;5074281;28;20473;-83
2022/12/29 04:50:16;;;;;;;0.30;0.30;;;9.40;99.90;;;;;;5074206;28;20452;-83
2022/12/29 04:52:43;;;;;;;0.50;0.50;;;9.40;99.90;;;;;;5073748;28;20850;-83
2022/12/29 04:55:09;;;;;;;0.30;0.30;;;9.40;99.90;;;;;;5074078;28;20461;-83
2022/12/29 04:57:38;;;;;;;0.40;0.30;;;9.30;99.90;;;;;;5074080;28;20534;-83
2022/12/29 05:00:06;;;;;;;1.57;0.47;;;9.30;99.90;;;;;;5073734;28;20441;-84
2022/12/29 05:02:33;;;;;;;0.57;0.43;;;9.30;99.90;;;;;;5074008;28;20469;-83
2022/12/29 05:04:59;;;;;;;0.40;0.30;;;9.30;99.90;;;;;;5073921;28;20825;-84
2022/12/29 05:07:26;;;;;;;0.30;0.20;;;9.40;99.90;;;;;;5074041;28;20449;-83
2022/12/29 05:09:53;;;;;;;0.40;0.30;;;9.40;99.90;;;;;;5073863;28;20453;-83
2022/12/29 05:12:19;;;;;;;0.53;0.30;;;9.40;99.90;;;;;;5073570;28;20450;-83
2022/12/29 05:14:47;;;;;;;0.50;0.30;;;9.50;99.90;;;;;;5073492;28;20473;-83
2022/12/29 05:17:14;;;;;;;0.40;0.30;;;9.40;99.90;;;;;;5074038;28;20445;-83
2022/12/29 05:19:41;;;;;;;0.50;0.50;;;9.40;99.90;;;;;;5073747;28;20457;-83
2022/12/29 05:22:08;;;;;;;0.30;0.30;;;9.40;99.90;;;;;;5073672;28;20958;-84
2022/12/29 05:24:34;;;;;;;0.43;0.37;;;9.30;99.90;;;;;;5073573;28;20461;-84
2022/12/29 05:27:01;;;;;;;1.07;0.43;;;9.30;99.90;;;;;;5073888;28;20458;-83
2022/12/29 05:29:28;;;;;;;0.30;0.30;;;9.20;99.90;;;;;;5073295;28;20831;-83
2022/12/29 05:31:56;;;;;;;1.00;0.90;;;9.20;99.90;;;;;;5073579;28;20454;-84
2022/12/29 05:34:23;;;;;;;0.50;0.50;;;9.20;99.90;;;;;;5073161;28;21020;-83
2022/12/29 05:36:49;;;;;;;0.40;0.40;;;9.20;99.90;;;;;;5073750;28;20461;-83
2022/12/29 05:39:16;;;;;;;1.13;0.40;;;9.20;99.90;;;;;;5073508;28;20452;-83
2022/12/29 05:41:43;;;;;;;0.40;0.30;;;9.30;99.90;;;;;;5073457;28;20477;-83
2022/12/29 05:44:11;;;;;;;0.30;0.30;;;9.30;99.90;;;;;;5073386;28;20472;-83
2022/12/29 05:46:37;;;;;;;0.40;0.33;;;9.30;99.90;;;;;;5073383;28;20453;-83
2022/12/29 05:49:06;;;;;;;0.40;0.40;;;9.40;99.90;;;;;;5073365;28;20441;-83
2022/12/29 05:51:33;;;;;;;0.40;0.33;;;9.50;99.90;;;;;;5073317;28;20452;-82
2022/12/29 05:53:59;;;;;;;1.77;0.50;;;9.50;99.90;;;;;;5073239;28;20480;-83
2022/12/29 05:56:26;;;;;;;0.30;0.30;;;9.60;99.90;;;;;;5072995;28;20941;-82
2022/12/29 05:58:53;;;;;;;0.93;0.30;;;9.60;99.90;;;;;;5073490;28;20450;-83
2022/12/29 06:01:19;;;;;;;0.40;0.30;;;9.60;99.90;;;;;;5073319;28;20809;-83
2022/12/29 06:03:46;;;;;;;0.40;0.40;;;9.60;99.90;;;;;;5073180;28;20461;-83
2022/12/29 06:06:14;;;;;;;0.60;0.30;;;9.60;99.90;;;;;;5073198;28;20456;-83
2022/12/29 06:08:41;;;;;;;0.30;0.30;;;9.70;99.90;;;;;;5073206;28;20445;-83
2022/12/29 06:11:08;;;;;;;0.50;0.40;;;9.80;99.90;;;;;;5073174;28;20870;-82
2022/12/29 06:13:35;;;;;;;0.30;0.20;;;9.80;99.90;;;;;;5076214;28;20858;-83
2022/12/29 06:16:02;;;;;;;0.30;0.30;;;9.80;99.90;;;;;;5076849;28;20948;-83
2022/12/29 06:18:29;;;;;;;0.50;0.50;;;9.90;99.90;;;;;;5077199;28;20887;-83
2022/12/29 06:20:59;;;;;;;0.40;0.30;;;9.90;99.90;;;;;;5077084;28;20452;-83
2022/12/29 06:23:28;;;;;;;0.30;0.30;;;9.80;99.90;;;;;;5077012;28;20468;-83
2022/12/29 06:25:54;;;;;;;0.70;0.30;;;9.70;99.90;;;;;;5076991;28;20453;-83
2022/12/29 06:28:21;;;;;;;0.80;0.30;;;9.70;99.90;;;;;;5076622;28;20449;-83
2022/12/29 06:30:48;;;;;;;0.70;0.40;;;9.70;99.90;;;;;;5076860;28;20456;-82
2022/12/29 06:33:16;;;;;;;0.80;0.80;;;9.60;99.90;;;;;;5076531;28;20988;-82
2022/12/29 06:35:43;;;;;;;0.43;0.37;;;9.60;99.90;;;;;;5076810;28;20449;-83
2022/12/29 06:38:10;;;;;;;0.40;0.40;;;9.60;99.90;;;;;;5076740;28;20456;-83
2022/12/29 06:40:38;;;;;;;3.40;0.30;;;9.60;99.90;;;;;;5076406;28;20441;-83
2022/12/29 06:43:04;;;;;;;0.37;0.30;;;9.50;99.90;;;;;;5076713;28;20453;-82
2022/12/29 06:45:31;;;;;;;0.40;0.30;;;9.50;99.90;;;;;;5076587;28;20450;-83
2022/12/29 06:47:58;;;;;;;0.30;0.30;;;9.50;99.90;;;;;;5076578;28;20445;-83
2022/12/29 06:50:24;;;;;;;0.50;0.50;;;9.50;99.90;;;;;;5076190;28;20797;-83
2022/12/29 06:52:51;;;;;;;0.30;0.20;;;9.50;99.90;;;;;;5076390;28;20825;-83
2022/12/29 06:55:18;;;;;;;0.30;0.30;;;9.50;99.90;;;;;;5076416;28;20469;-83
2022/12/29 06:57:46;;;;;;;0.40;0.40;;;9.50;99.90;;;;;;5076376;28;20441;-83
2022/12/29 07:00:14;;;;;;;0.30;0.27;;;9.40;99.90;;;;;;5076382;28;20449;-82
2022/12/29 07:02:40;;;;;;;0.30;0.30;;;9.40;99.90;;;;;;5075985;28;20456;-83
2022/12/29 07:05:09;;;;;;;0.40;0.30;;;9.40;99.90;;;;;;5076273;28;20465;-83
2022/12/29 07:07:35;;;;;;;0.47;0.30;;;9.40;99.90;;;;;;5075894;28;20937;-83
2022/12/29 07:10:02;;;;;;;0.30;0.30;;;9.40;99.90;;;;;;5076173;28;20445;-83
2022/12/29 07:12:29;;;;;;;0.50;0.40;;;9.40;99.90;;;;;;5075957;28;20485;-82
2022/12/29 07:14:57;;;;;;;1.47;1.37;;;9.40;99.90;;;;;;5075976;28;20492;-83
2022/12/29 07:17:24;;;;;;;0.40;0.40;;;9.40;99.90;;;;;;5076140;28;20464;-83
2022/12/29 07:19:50;;;;;;;0.60;0.53;;;9.40;99.90;;;;;;5076001;28;20446;-83
2022/12/29 07:22:17;;;;;;;0.40;0.30;;;9.30;99.90;;;;;;5075592;28;21044;-83
2022/12/29 07:24:44;;;;;;;0.40;0.40;;;9.20;99.90;;;;;;5075429;28;20466;-83
2022/12/29 07:27:11;;;;;;;0.40;0.30;;;9.20;99.90;;;;;;5076131;28;20445;-83
2022/12/29 07:29:38;;;;;;;0.30;0.20;;;9.20;99.90;;;;;;5075851;28;20445;-82
2022/12/29 07:32:06;;;;;;;0.30;0.27;;;9.20;99.90;;;;;;5075474;28;20512;-83
2022/12/29 07:34:33;;;;;;;0.97;0.30;;;9.20;99.90;;;;;;5075420;28;20489;-83
2022/12/29 07:36:59;;;;;;;0.57;0.37;;;9.20;99.90;;;;;;5075680;28;20453;-83
2022/12/29 07:39:26;;;;;;;0.30;0.30;;;9.20;99.90;;;;;;5075714;28;20445;-84
2022/12/29 07:41:53;;;;;;;0.40;0.30;;;9.10;99.90;;;;;;5075739;28;20457;-83
2022/12/29 07:44:20;;;;;;;0.30;0.30;;;9.20;99.90;;;;;;5075209;28;21016;-84
2022/12/29 07:46:46;;;;;;;0.40;0.30;;;9.20;99.90;;;;;;5075508;28;20453;-83
2022/12/29 07:49:14;;;;;;;0.40;0.30;;;9.20;99.90;;;;;;5075521;28;20454;-84
2022/12/29 07:51:41;;;;;;;2.10;0.60;;;9.20;99.90;;;;;;5075089;28;20941;-83
2022/12/29 07:54:09;;;;;;;0.40;0.30;;;9.20;99.90;;;;;;5075045;28;20488;-84
2022/12/29 07:56:36;;;;;;;1.43;0.50;;;9.20;99.90;;;;;;5075124;28;20520;-84
2022/12/29 07:59:02;;;;;;;0.53;0.40;;;9.30;99.90;;;;;;5075398;28;20453;-84
2022/12/29 08:01:30;;;;;;;0.30;0.30;;;9.30;99.90;;;;;;5075231;28;20445;-83
2022/12/29 08:03:56;;;;;;;0.50;0.40;;;9.40;99.90;;;;;;5075188;28;20469;-84
2022/12/29 08:06:24;;;;;;;0.30;0.30;;;9.50;99.90;;;;;;5075578;28;20932;-84
2022/12/29 08:08:51;;;;;;;0.30;0.30;;;9.60;99.90;;;;;;5075190;28;20454;-83
2022/12/29 08:11:18;;;;;;;0.30;0.30;;;9.60;99.90;;;;;;5075147;28;20460;-83
2022/12/29 08:13:45;;;;;;;0.50;0.30;;;9.70;99.90;;;;;;5074421;28;20489;-83
2022/12/29 08:16:11;;;;;;;0.47;0.47;;;9.60;99.90;;;;;;5074894;28;20450;-83
2022/12/29 08:18:38;;;;;;;0.60;0.50;;;9.70;99.90;;;;;;5074558;28;20810;-83
2022/12/29 08:21:05;;;;;;;0.40;0.30;;;9.60;99.90;;;;;;5074820;28;20456;-83
2022/12/29 08:23:34;;;;;;;0.63;0.30;;;9.70;99.90;;;;;;5074407;28;20467;-83
2022/12/29 08:26:02;;;;;;;0.30;0.30;;;9.70;99.90;;;;;;5074428;28;20453;-83
2022/12/29 08:28:29;;;;;;;0.40;0.40;;;9.80;99.90;;;;;;5074671;28;20457;-83
2022/12/29 08:30:58;;;;;;;0.40;0.30;;;9.80;99.90;;;;;;5074569;28;20445;-83
2022/12/29 08:33:26;;;;;;;0.30;0.20;;;9.80;99.90;;;;;;5074467;28;20465;-83
2022/12/29 08:35:52;;;;;;;0.40;0.37;;;9.80;99.90;;;;;;5073988;28;20507;-83
2022/12/29 08:38:19;;;;;;;0.40;0.30;;;9.80;99.90;;;;;;5074487;28;20445;-83
2022/12/29 08:40:47;;;;;;;0.40;0.40;;;9.80;99.90;;;;;;5074427;28;20453;-84
2022/12/29 08:43:14;;;;;;;1.23;0.40;;;9.80;99.90;;;;;;5074094;28;20826;-83
2022/12/29 08:45:41;;;;;;;0.30;0.30;;;9.80;99.90;;;;;;5074937;28;20449;-83
2022/12/29 08:48:08;;;;;;;0.40;0.30;;;9.80;99.90;;;;;;5074473;28;20453;-83
2022/12/29 08:50:35;;;;;;;0.60;0.30;;;9.90;99.90;;;;;;5074105;28;20453;-83
2022/12/29 08:53:01;;;;;;;0.40;0.37;;;9.80;99.90;;;;;;5074478;28;20429;-83
2022/12/29 08:55:28;;;;;;;1.07;0.40;;;9.80;99.90;;;;;;5074155;28;20484;-83
2022/12/29 08:57:57;;;;;;;0.30;0.30;;;9.80;99.90;;;;;;5074889;28;20457;-83
2022/12/29 09:00:24;;;;;;;0.37;0.30;;;9.70;99.90;;;;;;5074145;28;20449;-83
2022/12/29 09:02:51;;;;;;;1.47;0.40;;;9.70;99.90;;;;;;5074039;28;20442;-83
2022/12/29 09:05:17;;;;;;;0.37;0.37;;;9.70;99.90;;;;;;5073915;28;20544;-83
2022/12/29 09:07:44;;;;;;;0.80;0.43;;;9.70;99.90;;;;;;5074086;28;20449;-83
2022/12/29 09:10:11;;;;;;;0.30;0.30;;;9.90;99.90;;;;;;5073895;28;20476;-82
2022/12/29 09:12:38;;;;;;;0.30;0.30;;;9.90;99.90;;;;;;5073647;28;20481;-82
2022/12/29 09:15:08;;;;;;;0.30;0.30;;;10.10;99.90;;;;;;5073396;28;21018;-83
2022/12/29 09:17:44;;;;;;;1.03;0.40;;;10.20;99.90;;;;;;5073766;28;20449;-83
2022/12/29 09:20:11;;;;;;;0.30;0.30;;;10.30;99.90;;;;;;5073826;28;20441;-83
2022/12/29 09:22:38;;;;;;;0.40;0.40;;;10.40;99.90;;;;;;5073762;28;20446;-83
2022/12/29 09:25:05;;;;;;;0.30;0.30;;;10.50;99.90;;;;;;5073587;28;20469;-83
2022/12/29 09:27:32;;;;;;;0.30;0.27;;;10.70;99.90;;;;;;5073615;28;20457;-83
2022/12/29 09:29:59;;;;;;;0.50;0.40;;;10.80;99.90;;;;;;5073276;28;20457;-83
2022/12/29 09:32:27;;;;;;;1.47;0.30;;;10.90;99.90;;;;;;5073232;28;20812;-82
2022/12/29 09:34:54;;;;;;;0.40;0.30;;;11.10;99.90;;;;;;5073401;28;20489;-82
2022/12/29 09:37:21;;;;;;;0.37;0.30;;;11.20;99.90;;;;;;5073275;28;20430;-82
2022/12/29 09:39:48;;;;;;;0.80;0.40;;;11.30;99.90;;;;;;5073464;28;20453;-83
2022/12/29 09:42:20;;;;;;;3.13;0.50;;;11.40;99.90;;;;;;5073520;28;20441;-82
2022/12/29 09:45:01;;;;;;;0.30;0.30;;;11.50;99.90;;;;;;5073320;28;20480;-82
2022/12/29 09:47:30;;;;;;;0.90;0.40;;;11.60;99.90;;;;;;5072199;28;20487;-82
2022/12/29 09:50:02;;;;;;;0.30;0.30;;;11.80;99.90;;;;;;5073359;28;20830;-82
2022/12/29 09:52:32;;;;;;;0.40;0.30;;;11.80;99.90;;;;;;5073320;28;20433;-82
2022/12/29 09:55:03;;;;;;;0.40;0.30;;;11.80;99.90;;;;;;5073121;28;20488;-82
2022/12/29 09:57:36;;;;;;;1.07;0.77;;;12.00;99.90;;;;;;5073735;28;20798;-83
2022/12/29 10:00:12;;;;;;;0.70;0.63;;;12.00;99.90;;;;;;5073330;28;20433;-83
2022/12/29 10:02:43;;;;;;;0.40;0.30;;;12.00;99.90;;;;;;5073443;28;20433;-83
2022/12/29 10:05:24;;;;;;;0.60;0.30;;;12.00;99.90;;;;;;5073172;28;20470;-83
2022/12/29 10:07:56;;;;;;;3.30;0.60;;;11.90;99.90;;;;;;5073224;28;20442;-82
2022/12/29 10:10:34;;;;;;;0.50;0.40;;;11.90;99.90;;;;;;5073438;28;20430;-83
2022/12/29 10:13:11;;;;;;;0.40;0.30;;;11.90;99.90;;;;;;5072790;28;20492;-83
2022/12/29 10:15:56;;;;;;;0.30;0.30;;;11.90;99.90;;;;;;5074381;28;20496;-84
2022/12/29 10:18:41;;;;;;;0.50;0.30;;;12.00;99.90;;;;;;5073567;28;20437;-83
2022/12/29 10:21:16;;;;;;;0.30;0.30;;;12.10;99.90;;;;;;5073898;28;20434;-83
2022/12/29 10:23:46;;;;;;;0.80;0.40;;;12.30;99.90;;;;;;5073034;28;20496;-83
2022/12/29 10:26:16;;;;;;;1.03;0.40;;;12.30;99.90;;;;;;5072738;28;20477;-83
2022/12/29 10:28:46;;;;;;;0.30;0.30;;;12.30;99.90;;;;;;5072737;28;20937;-83
2022/12/29 10:31:19;;;;;;;0.43;0.40;;;12.30;99.90;;;;;;5072997;28;20453;-84
2022/12/29 10:33:52;;;;;;;0.40;0.30;;;12.30;99.90;;;;;;5072827;28;20881;-84
2022/12/29 10:36:24;;;;;;;0.63;0.40;;;12.30;99.90;;;;;;5072915;28;20465;-83
2022/12/29 10:39:03;;;;;;;0.40;0.40;;;12.40;99.90;;;;;;5072658;28;20934;-83
2022/12/29 10:41:39;;;;;;;4.37;1.27;;;12.50;99.90;;;;;;5072894;28;20430;-83
2022/12/29 10:44:05;;;;;;;0.40;0.40;;;12.70;99.90;;;;;;5073280;28;20484;-83
2022/12/29 10:46:36;;;;;;;0.40;0.30;;;12.70;99.90;;;;;;5072605;28;20446;-83
2022/12/29 10:49:05;;;;;;;0.40;0.40;;;12.50;99.90;;;;;;5073686;28;20445;-83
2022/12/29 10:51:38;;;;;;;0.40;0.40;;;12.40;99.90;;;;;;5072782;28;20446;-83
2022/12/29 10:54:12;;;;;;;1.13;0.40;;;12.20;99.90;;;;;;5072355;28;21019;-83
2022/12/29 10:56:44;;;;;;;0.43;0.37;;;12.00;99.90;;;;;;5072797;28;20468;-83
2022/12/29 10:59:17;;;;;;;0.40;0.40;;;12.00;99.90;;;;;;5075171;28;20440;-83
2022/12/29 11:01:58;;;;;;;0.70;0.50;;;11.90;99.90;;;;;;5076092;28;20546;-82
2022/12/29 11:04:40;;;;;;;0.60;0.60;;;11.90;99.90;;;;;;5076009;28;20995;-83
2022/12/29 11:07:08;;;;;;;0.40;0.30;;;12.00;99.90;;;;;;5076340;28;20460;-83
2022/12/29 11:09:37;;;;;;;0.30;0.30;;;12.10;99.90;;;;;;5076239;28;20453;-83
2022/12/29 11:12:19;;;;;;;0.40;0.30;;;12.10;99.90;;;;;;5076108;28;20448;-83
2022/12/29 11:14:46;;;;;;;0.70;0.70;;;12.10;99.90;;;;;;5076433;28;20480;-82
2022/12/29 11:17:17;;;;;;;0.50;0.40;;;12.20;99.90;;;;;;5076054;28;20452;-79
2022/12/29 11:19:45;;;;;;;0.30;0.30;;;12.40;99.90;;;;;;5076081;28;20442;-80
2022/12/29 11:22:22;;;;;;;0.40;0.40;;;12.40;99.90;;;;;;5075986;28;20468;-79
2022/12/29 11:24:51;;;;;;;0.40;0.40;;;12.30;99.90;;;;;;5075739;28;20538;-79
2022/12/29 11:27:22;;;;;;;0.40;0.30;;;12.10;99.90;;;;;;5076109;28;20441;-80
2022/12/29 11:29:50;;;;;;;0.97;0.40;;;11.90;99.90;;;;;;5075926;28;20440;-79
2022/12/29 11:32:20;;;;;;;4.00;0.40;;;11.80;99.90;;;;;;5075576;28;20445;-79
2022/12/29 11:34:49;;;;;;;0.30;0.30;;;11.80;99.90;;;;;;5075785;28;21007;-78
2022/12/29 11:37:19;;;;;;;0.30;0.30;;;11.90;99.90;;;;;;5075831;28;20446;-79
2022/12/29 11:39:53;;;;;;;0.40;0.40;;;12.00;99.90;;;;;;5075677;28;20430;-79
2022/12/29 11:42:23;;;;;;;0.30;0.27;;;12.10;99.90;;;;;;5075388;28;20419;-79
2022/12/29 11:44:52;;;;;;;0.50;0.40;;;12.30;99.90;;;;;;5075566;28;20457;-80
2022/12/29 11:47:29;;;;;;;0.30;0.30;;;12.40;99.90;;;;;;5075549;28;20460;-79
2022/12/29 11:50:01;;;;;;;0.30;0.30;;;12.20;99.90;;;;;;5075553;28;20437;-80
2022/12/29 11:52:32;;;;;;;0.40;0.30;;;12.20;99.90;;;;;;5075316;28;20511;-79
2022/12/29 11:55:01;;;;;;;0.30;0.30;;;12.00;99.90;;;;;;5075108;28;20516;-80
2022/12/29 11:57:28;;;;;;;0.30;0.30;;;11.90;99.90;;;;;;5075384;28;20437;-80
2022/12/29 11:59:56;;;;;;;2.80;0.40;;;11.80;99.90;;;;;;5075269;28;20456;-80
2022/12/29 12:02:35;;;;;;;0.40;0.30;;;11.70;99.90;;;;;;5075255;28;20440;-80
2022/12/29 12:05:10;;;;;;;0.40;0.30;;;11.70;99.90;;;;;;5074831;28;20976;-80
2022/12/29 12:07:42;;;;;;;0.40;0.30;;;11.60;99.90;;;;;;5075204;28;20861;-79
2022/12/29 12:10:22;;;;;;;0.40;0.40;;;11.70;99.90;;;;;;5073801;28;20955;-80
2022/12/29 12:12:54;;;;;;;0.30;0.27;;;11.60;99.90;;;;;;5074782;28;20484;-80
2022/12/29 12:15:28;;;;;;;4.20;0.60;;;11.60;99.90;;;;;;5074826;28;20489;-79
2022/12/29 12:18:01;;;;;;;0.40;0.40;;;11.70;99.90;;;;;;5074666;28;20783;-80
2022/12/29 12:20:37;;;;;;;0.40;0.30;;;11.60;99.90;;;;;;5074899;28;20438;-80
2022/12/29 12:23:17;;;;;;;0.60;0.50;;;11.50;99.90;;;;;;5074794;28;20436;-79
2022/12/29 12:25:52;;;;;;;0.40;0.30;;;11.50;99.90;;;;;;5074833;28;20460;-79
2022/12/29 12:28:26;;;;;;;0.40;0.40;;;11.30;99.90;;;;;;5074564;28;20414;-79
2022/12/29 12:30:57;;;;;;;0.40;0.30;;;11.20;99.90;;;;;;5074713;28;20445;-78
2022/12/29 12:33:29;;;;;;;0.30;0.30;;;11.00;99.90;;;;;;5074648;28;20473;-78
2022/12/29 12:36:15;;;;;;;0.60;0.60;;;10.80;99.90;;;;;;5074577;28;20470;-78
2022/12/29 12:38:50;;;;;;;0.67;0.40;;;10.60;99.90;;;;;;5074616;28;20433;-78
2022/12/29 12:41:30;;;;;;;0.70;0.50;;;10.40;99.90;;;;;;5074485;28;20434;-78
2022/12/29 12:44:04;;;;;;;0.50;0.30;;;10.30;99.90;;;;;;5074394;28;20480;-78
2022/12/29 12:46:58;;;;;;;0.90;0.40;;;10.20;99.90;;;;;;5074377;28;20433;-78
2022/12/29 12:49:52;;;;;;;0.40;0.33;;;10.20;99.90;;;;;;5074349;28;20450;-78
2022/12/29 12:52:31;;;;;;;0.30;0.30;;;10.30;99.90;;;;;;5046558;28;20461;-78
2022/12/29 12:55:11;;;;;;;2.00;0.60;;;10.30;99.90;;;;;;5074088;28;20465;-78
2022/12/29 12:57:53;;;;;;;0.40;0.30;;;10.30;99.90;;;;;;5073901;28;20468;-78
2022/12/29 13:00:23;;;;;;;0.50;0.30;;;10.30;99.90;;;;;;5073857;28;20437;-79
2022/12/29 13:03:04;;;;;;;0.30;0.30;;;10.30;99.90;;;;;;5074001;28;20532;-78
2022/12/29 13:05:45;;;;;;;0.60;0.50;;;10.30;99.90;;;;;;5073738;28;20891;-79
2022/12/29 13:08:34;;;;;;;0.60;0.30;;;10.40;99.90;;;;;;5074322;28;20414;-78
2022/12/29 13:11:08;;;;;;;0.40;0.40;;;10.50;99.90;;;;;;5073966;28;20501;-79
2022/12/29 13:13:59;;;;;;;0.40;0.30;;;10.50;99.90;;;;;;5073479;28;20480;-79
2022/12/29 13:16:35;;;;;;;0.30;0.30;;;10.50;99.90;;;;;;5073486;28;20486;-78
2022/12/29 13:19:09;;;;;;;0.53;0.40;;;10.50;99.90;;;;;;5073702;28;20932;-79
2022/12/29 13:21:51;;;;;;;2.30;1.70;;;10.60;99.90;;;;;;5073616;28;20803;-79
2022/12/29 13:24:27;;;;;;;2.50;0.43;;;10.60;99.90;;;;;;5073687;28;20474;-79
2022/12/29 13:27:00;;;;;;;0.40;0.30;;;10.60;99.90;;;;;;5073391;28;20811;-79
2022/12/29 13:29:34;;;;;;;0.37;0.27;;;10.70;99.90;;;;;;5073491;28;20811;-79
2022/12/29 13:32:18;;;;;;;0.30;0.30;;;10.80;99.90;;;;;;5073652;28;20434;-79
2022/12/29 13:34:54;;;;;;;0.47;0.47;;;10.80;99.90;;;;;;5073498;28;20521;-79
2022/12/29 13:37:27;;;;;;;0.40;0.30;;;10.90;99.90;;;;;;5073512;28;20428;-78
2022/12/29 13:39:58;;;;;;;0.60;0.60;;;10.90;99.90;;;;;;5073808;28;20430;-79
2022/12/29 13:42:26;;;;;;;1.60;0.50;;;11.00;99.90;;;;;;5073569;28;20441;-79